Terminal Aerodrome Forecast
Issued by NWS Los Angeles, CA

Home | Current Version | Previous Version | Text Only | Print | Product List | Glossary On
Versions: 1 2 3 4 5 6 7 8 9 10 11 12 13 14 15 16 17 18 19 20 21 22 23 24 25 26 27 28 29
000
FTUS46 KLOX 271731
TAFSMX
TAF
KSMX 271731Z 2718/2818 VRB05KT 4SM BR OVC008
     FM271900 30008KT P6SM SKC
     FM272100 30015KT P6SM SKC
     FM280300 30005KT P6SM BKN010
     FM280900 VRB03KT 4SM BR OVC008
     FM281100 VRB03KT 2SM BR OVC005
     FM281600 VRB03KT 5SM BR OVC008=

USA.gov is the U.S. government's official web portal to all federal, state and local government web resources and services.